Time;durP1;ratioP1;P1;durP2;ratioP2;P2;SDS_P1;SDS_P2;PMS_P1;PMS_P2;Temp;Humidity;BMP_temperature;BMP_pressure;BME280_temperature;BME280_humidity;BME280_pressure;Samples;Min_cycle;Max_cycle;Signal;HPM_P1;HPM_P2
2022/07/05 00:07:29;;;;;;;;;;;20.30;1.00;;;;;;5844281;24;20026;-89
2022/07/05 00:10:45;;;;;;;0.95;0.47;;;20.20;1.00;;;;;;5822948;24;19970;-89
2022/07/05 00:22:34;;;;;;;0.82;0.60;;;20.00;1.00;;;;;;5817466;24;20068;-89
2022/07/05 00:26:22;;;;;;;0.95;0.68;;;20.00;1.00;;;;;;5803576;24;20027;-89
2022/07/05 01:21:21;;;;;;;;;;;;;;;;;;;;;
2022/07/05 01:34:15;;;;;;;1.92;0.63;;;19.40;1.00;;;;;;5925778;24;20059;-89
2022/07/05 01:57:18;;;;;;;;;;;;;;;;;;;;;
2022/07/05 02:05:16;;;;;;;0.70;0.43;;;19.00;1.00;;;;;;6221411;23;20123;-89
2022/07/05 02:29:43;;;;;;;1.20;0.43;;;18.70;1.00;;;;;;5988665;23;20059;-88
2022/07/05 02:41:06;;;;;;;;;;;;;;;;;;;;;
2022/07/05 02:44:50;;;;;;;0.75;0.32;;;18.50;1.00;;;;;;5902680;24;20432;-87
2022/07/05 02:48:31;;;;;;;2.47;0.55;;;18.50;1.00;;;;;;5866873;24;20108;-88
2022/07/05 02:51:48;;;;;;;2.42;0.50;;;18.50;1.00;;;;;;5924595;23;20055;-90
2022/07/05 02:58:55;;;;;;;;;;;;;;;;;;;;;
2022/07/05 03:05:11;;;;;;;2.30;0.60;;;18.50;1.00;;;;;;6069288;22;20022;-89
2022/07/05 03:08:25;;;;;;;2.90;0.63;;;18.40;1.00;;;;;;6226649;23;20103;-88
2022/07/05 03:11:52;;;;;;;4.47;0.65;;;18.50;1.00;;;;;;6227507;23;20020;-89
2022/07/05 03:15:41;;;;;;;2.00;0.45;;;18.40;1.00;;;;;;6222330;23;20020;-89
2022/07/05 03:18:36;;;;;;;0.88;0.20;;;18.30;1.00;;;;;;6179892;23;20355;-89
2022/07/05 03:22:54;;;;;;;1.98;0.60;;;18.40;1.00;;;;;;6123570;23;20017;-89
2022/07/05 03:25:54;;;;;;;2.90;0.63;;;18.40;1.00;;;;;;6153571;23;20033;-88
2022/07/05 03:29:11;;;;;;;1.48;0.35;;;18.30;1.00;;;;;;6107481;23;20021;-89
2022/07/05 03:32:08;;;;;;;2.47;0.52;;;18.20;1.00;;;;;;6145606;23;20100;-89
2022/07/05 03:35:52;;;;;;;2.67;0.38;;;18.20;1.00;;;;;;6127803;23;20041;-89
2022/07/05 03:39:32;;;;;;;;;;;;;;;;;;;;;
2022/07/05 03:59:10;;;;;;;1.48;0.30;;;18.10;1.00;;;;;;5917392;24;20032;-88
2022/07/05 04:02:04;;;;;;;2.72;0.60;;;18.00;1.00;;;;;;6108880;23;20542;-89
2022/07/05 04:05:32;;;;;;;0.90;0.30;;;18.00;1.00;;;;;;6099639;23;20026;-89
2022/07/05 04:08:35;;;;;;;1.85;0.30;;;18.10;1.00;;;;;;6122924;23;20026;-88
2022/07/05 04:11:15;;;;;;;1.48;0.20;;;18.10;1.00;;;;;;6123474;23;20140;-88
2022/07/05 04:17:51;;;;;;;1.95;0.35;;;18.10;1.00;;;;;;6196348;23;19918;-89
2022/07/05 04:20:46;;;;;;;1.35;0.43;;;18.00;1.00;;;;;;6220212;23;20071;-89
2022/07/05 04:47:47;;;;;;;5.10;0.85;;;17.90;1.00;;;;;;6246203;22;20095;-91
2022/07/05 05:23:53;;;;;;;1.77;0.50;;;17.80;1.00;;;;;;6141388;23;20048;-89
2022/07/05 06:35:49;;;;;;;3.90;0.57;;;18.10;1.00;;;;;;6187678;23;20052;-92
2022/07/05 06:38:34;;;;;;;4.03;0.68;;;18.10;1.00;;;;;;6138903;23;20016;-91
2022/07/05 06:41:48;;;;;;;1.17;0.43;;;18.10;1.00;;;;;;6160393;23;20025;-92
2022/07/05 06:44:36;;;;;;;2.40;0.52;;;18.10;1.00;;;;;;6136999;23;20020;-92
2022/07/05 06:47:26;;;;;;;2.22;1.02;;;18.10;1.00;;;;;;6141793;23;20020;-90
2022/07/05 06:49:59;;;;;;;1.98;0.65;;;18.20;1.00;;;;;;6137080;23;20029;-90
2022/07/05 06:52:45;;;;;;;5.03;0.95;;;18.20;1.00;;;;;;6136776;23;20099;-91
2022/07/05 06:55:24;;;;;;;2.38;0.82;;;18.20;1.00;;;;;;6138184;23;20091;-92
2022/07/05 06:58:14;;;;;;;1.45;1.00;;;18.20;1.00;;;;;;6161726;23;20052;-92
2022/07/05 07:01:40;;;;;;;0.82;0.30;;;18.20;1.00;;;;;;6167841;23;20408;-91
2022/07/05 07:12:19;;;;;;;5.15;0.68;;;18.30;1.00;;;;;;6186995;23;20483;-91
2022/07/05 07:15:25;;;;;;;;;;;18.30;1.00;;;;;;6140878;23;20021;-90
2022/07/05 07:18:13;;;;;;;2.20;0.63;;;18.40;1.00;;;;;;6161232;23;19916;-90
2022/07/05 07:21:53;;;;;;;3.40;1.00;;;18.40;1.00;;;;;;6143760;23;20108;-90
2022/07/05 07:25:23;;;;;;;1.90;0.43;;;18.40;1.00;;;;;;6140430;23;20124;-88
2022/07/05 07:28:48;;;;;;;0.88;0.80;;;18.40;1.00;;;;;;6111761;23;20021;-91
2022/07/05 07:32:20;;;;;;;0.60;0.38;;;18.50;1.00;;;;;;6110408;23;20036;-90
2022/07/05 07:35:26;;;;;;;3.50;0.50;;;18.40;1.00;;;;;;6175261;23;20023;-90
2022/07/05 07:38:22;;;;;;;2.25;0.50;;;18.40;1.00;;;;;;6166385;23;20083;-89
2022/07/05 07:41:38;;;;;;;3.50;0.57;;;18.40;1.00;;;;;;6176920;23;20024;-90
2022/07/05 07:45:30;;;;;;;1.92;0.47;;;18.50;1.00;;;;;;6215197;23;20027;-88
2022/07/05 07:49:01;;;;;;;5.75;0.80;;;18.50;1.00;;;;;;6205363;23;20016;-88
2022/07/05 07:51:37;;;;;;;4.00;0.70;;;18.50;1.00;;;;;;6181740;23;20017;-89
2022/07/05 07:54:35;;;;;;;2.03;0.85;;;18.50;1.00;;;;;;6193673;23;20027;-91
2022/07/05 07:57:23;;;;;;;2.05;0.77;;;18.40;1.00;;;;;;6190501;23;20025;-89
2022/07/05 08:00:07;;;;;;;3.15;0.60;;;18.50;1.00;;;;;;6189709;23;20379;-92
2022/07/05 08:03:08;;;;;;;3.67;0.93;;;18.50;1.00;;;;;;6194531;23;20019;-89
2022/07/05 08:06:04;;;;;;;2.28;0.50;;;18.50;1.00;;;;;;6194764;23;20016;-90
2022/07/05 08:08:50;;;;;;;3.83;0.73;;;18.50;1.00;;;;;;6190013;23;20463;-89
2022/07/05 08:11:55;;;;;;;3.35;1.00;;;18.50;1.00;;;;;;6190038;23;20038;-90
2022/07/05 08:22:24;;;;;;;1.27;0.68;;;18.50;1.00;;;;;;6205015;23;20097;-91
2022/07/05 08:33:39;;;;;;;3.35;0.65;;;18.70;1.00;;;;;;6141070;23;20081;-90
2022/07/05 08:36:21;;;;;;;1.63;0.52;;;18.70;1.00;;;;;;6167251;23;20027;-91
2022/07/05 08:38:59;;;;;;;4.65;0.60;;;18.70;1.00;;;;;;6165717;23;20028;-90
2022/07/05 08:41:37;;;;;;;2.92;0.40;;;18.70;1.00;;;;;;6189839;23;20403;-92
2022/07/05 08:44:18;;;;;;;2.20;0.60;;;18.70;1.00;;;;;;6191368;23;20445;-91
2022/07/05 08:47:14;;;;;;;2.10;0.73;;;18.70;1.00;;;;;;6165179;23;20032;-91
2022/07/05 08:49:58;;;;;;;1.20;0.38;;;18.70;1.00;;;;;;6190785;23;20059;-92
2022/07/05 08:52:52;;;;;;;1.83;0.57;;;18.70;1.00;;;;;;6187051;23;20068;-91
2022/07/05 08:56:19;;;;;;;3.60;1.08;;;18.80;1.00;;;;;;6193999;23;20488;-92
2022/07/05 09:11:10;;;;;;;2.10;0.77;;;19.00;1.00;;;;;;6236488;22;20032;31
2022/07/05 09:14:11;;;;;;;3.10;1.15;;;19.10;1.00;;;;;;6153880;23;20021;-92
2022/07/05 09:22:10;;;;;;;4.45;1.05;;;19.00;1.00;;;;;;5974228;23;20497;-91
2022/07/05 09:25:33;;;;;;;3.45;0.98;;;19.00;1.00;;;;;;5967911;23;20043;-91
2022/07/05 10:06:04;;;;;;;;;;;;;;;;;;;;;
2022/07/05 10:14:43;;;;;;;;;;;;;;;;;;;;;
2022/07/05 11:16:39;;;;;;;2.08;0.70;;;21.30;1.00;;;;;;5930036;24;20056;-89
2022/07/05 11:20:33;;;;;;;2.28;0.50;;;21.50;1.00;;;;;;5868813;24;20687;-90
2022/07/05 11:25:05;;;;;;;;;;;;;;;;;;;;;
2022/07/05 11:29:31;;;;;;;;;;;;;;;;;;;;;
2022/07/05 13:53:59;;;;;;;1.55;0.45;;;23.10;1.00;;;;;;6292030;22;20020;-88
2022/07/05 13:56:26;;;;;;;0.70;0.30;;;23.10;1.00;;;;;;6242258;23;20012;-87
2022/07/05 13:58:55;;;;;;;1.25;0.40;;;23.30;1.00;;;;;;6222446;23;20020;-87
2022/07/05 14:01:31;;;;;;;3.67;0.60;;;23.40;1.00;;;;;;6246880;23;20024;-89
2022/07/05 14:36:17;;;;;;;;;;;;;;;;;;;;;
2022/07/05 14:39:16;;;;;;;3.00;0.70;;;25.30;1.00;;;;;;6216789;23;20348;-90
2022/07/05 14:42:27;;;;;;;2.85;0.73;;;25.30;1.00;;;;;;6214664;23;20017;-90
2022/07/05 15:06:34;;;;;;;3.15;0.60;;;25.90;1.00;;;;;;6098743;23;20021;-90
2022/07/05 15:09:44;;;;;;;0.80;0.20;;;26.00;1.00;;;;;;6153139;23;20032;-89
2022/07/05 15:12:18;;;;;;;2.15;0.40;;;26.10;1.00;;;;;;6185895;23;20012;-89
2022/07/05 15:14:45;;;;;;;1.00;0.40;;;25.90;1.00;;;;;;6185378;23;20349;-88
2022/07/05 15:17:13;;;;;;;4.18;0.50;;;25.80;1.00;;;;;;6184954;23;20037;-87
2022/07/05 15:19:40;;;;;;;1.42;0.40;;;25.80;1.00;;;;;;6185363;23;20021;-88
2022/07/05 15:22:18;;;;;;;1.40;0.50;;;26.00;1.00;;;;;;6160584;23;20027;-87
2022/07/05 15:24:57;;;;;;;2.45;0.52;;;26.00;1.00;;;;;;6185828;23;20159;-88
2022/07/05 15:28:14;;;;;;;;;;;;;;;;;;;;;
2022/07/05 15:31:21;;;;;;;2.05;0.40;;;26.30;1.00;;;;;;6192426;23;20017;-87
2022/07/05 15:38:44;;;;;;;2.17;0.40;;;26.60;1.00;;;;;;6077413;23;20069;-88
2022/07/05 15:41:35;;;;;;;2.83;0.93;;;26.70;1.00;;;;;;6163747;23;20021;-87
2022/07/05 15:45:23;;;;;;;;;;;;;;;;;;;;;
2022/07/05 15:56:45;;;;;;;1.35;0.40;;;27.60;1.00;;;;;;6215177;23;20492;-88
2022/07/05 16:00:40;;;;;;;2.67;0.93;;;27.70;1.00;;;;;;6208298;23;20017;-89
2022/07/05 16:08:54;;;;;;;0.98;0.50;;;28.50;1.00;;;;;;5893770;23;20025;-89
2022/07/05 16:12:13;;;;;;;1.55;0.60;;;28.60;1.00;;;;;;6119241;23;20024;-89
2022/07/05 16:14:47;;;;;;;0.80;0.25;;;28.40;1.00;;;;;;6183458;23;20080;-88
2022/07/05 16:17:35;;;;;;;0.60;0.20;;;28.40;1.00;;;;;;6163461;23;20021;-87
2022/07/05 16:20:30;;;;;;;3.78;0.40;;;28.70;1.00;;;;;;6158700;23;20023;-90
2022/07/05 16:23:28;;;;;;;1.65;0.22;;;28.80;1.00;;;;;;6105046;23;20041;-89
2022/07/05 16:27:36;;;;;;;;;;;;;;;;;;;;;
2022/07/05 16:35:27;;;;;;;1.45;0.50;;;27.80;1.00;;;;;;6186510;22;20007;-89
2022/07/05 16:39:30;;;;;;;;;;;;;;;;;;;;;
2022/07/05 17:11:41;;;;;;;4.68;0.75;;;27.10;1.00;;;;;;6216914;22;20028;-90
2022/07/05 17:14:26;;;;;;;0.68;0.25;;;26.80;1.00;;;;;;6096725;23;20022;-88
2022/07/05 17:17:42;;;;;;;2.42;0.43;;;26.60;1.00;;;;;;6100338;23;20018;-89
2022/07/05 17:20:44;;;;;;;0.63;0.20;;;26.50;1.00;;;;;;6010511;23;20027;-89
2022/07/05 17:23:11;;;;;;;1.75;0.40;;;26.30;1.00;;;;;;6010808;23;20034;-89
2022/07/05 17:25:46;;;;;;;0.85;0.38;;;26.10;1.00;;;;;;6011178;23;20034;-89
2022/07/05 17:28:20;;;;;;;1.60;0.43;;;26.00;1.00;;;;;;6026503;23;20031;-88
2022/07/05 17:30:50;;;;;;;1.25;0.30;;;26.00;1.00;;;;;;6012879;23;20068;-90
2022/07/05 17:33:20;;;;;;;3.42;0.43;;;25.80;1.00;;;;;;6003833;23;20019;-89
2022/07/05 17:35:52;;;;;;;1.23;0.28;;;25.70;1.00;;;;;;5987517;23;20019;-89
2022/07/05 17:38:20;;;;;;;1.95;0.65;;;25.50;1.00;;;;;;5986334;23;20015;-89
2022/07/05 17:40:52;;;;;;;3.00;0.50;;;25.40;1.00;;;;;;5986126;23;20367;-89
2022/07/05 17:43:22;;;;;;;1.50;0.80;;;25.30;1.00;;;;;;6009497;23;20034;-89
2022/07/05 17:45:56;;;;;;;3.92;0.65;;;25.20;1.00;;;;;;6009807;23;20032;-89
2022/07/05 17:48:23;;;;;;;3.83;0.35;;;25.10;1.00;;;;;;6009551;23;20444;-88
2022/07/05 17:50:51;;;;;;;1.45;0.40;;;25.10;1.00;;;;;;6056093;23;20040;-89
2022/07/05 17:53:19;;;;;;;1.38;0.35;;;25.10;1.00;;;;;;6215367;23;20115;-89
2022/07/05 17:55:52;;;;;;;4.35;0.38;;;25.00;1.00;;;;;;6216447;23;20013;-88
2022/07/05 17:58:27;;;;;;;3.63;0.70;;;24.80;1.00;;;;;;6215545;23;20099;-88
2022/07/05 18:00:56;;;;;;;2.15;0.85;;;24.70;1.00;;;;;;6216377;23;20498;-89
2022/07/05 18:03:25;;;;;;;3.08;0.55;;;24.60;1.00;;;;;;6215559;23;20017;-89
2022/07/05 18:05:52;;;;;;;1.63;0.55;;;24.20;1.00;;;;;;6215951;23;20474;-89
2022/07/05 18:08:20;;;;;;;1.58;0.32;;;24.30;1.00;;;;;;6190595;23;20025;-88
2022/07/05 18:10:47;;;;;;;3.10;0.30;;;24.40;1.00;;;;;;6215601;23;20028;-88
2022/07/05 18:13:17;;;;;;;1.63;0.63;;;24.30;1.00;;;;;;6214774;23;20024;-89
2022/07/05 18:16:06;;;;;;;2.00;0.40;;;24.30;1.00;;;;;;6216396;23;20019;-89
2022/07/05 18:19:14;;;;;;;1.88;0.32;;;24.20;1.00;;;;;;6195928;23;20016;-89
2022/07/05 18:22:02;;;;;;;4.22;0.50;;;24.20;1.00;;;;;;6214811;23;20103;-89
2022/07/05 18:24:31;;;;;;;2.88;0.32;;;24.00;1.00;;;;;;6190155;23;20510;-89
2022/07/05 18:27:04;;;;;;;3.50;0.33;;;24.00;1.00;;;;;;6215759;23;20020;-89
2022/07/05 18:29:48;;;;;;;;;;;23.80;1.00;;;;;;6215897;23;20333;-89
2022/07/05 18:32:15;;;;;;;1.30;0.52;;;23.70;1.00;;;;;;6214620;23;19947;-88
2022/07/05 18:34:42;;;;;;;1.35;0.50;;;23.30;1.00;;;;;;6190641;23;20436;-88
2022/07/05 18:37:14;;;;;;;3.10;0.35;;;23.40;1.00;;;;;;6215547;23;20040;-87
2022/07/05 18:39:42;;;;;;;0.93;0.32;;;23.40;1.00;;;;;;6190442;23;20017;-87
2022/07/05 18:42:13;;;;;;;1.50;1.20;;;23.40;1.00;;;;;;6190745;23;20028;-89
2022/07/05 18:44:44;;;;;;;1.90;0.40;;;23.20;1.00;;;;;;6217108;23;20017;-88
2022/07/05 18:47:15;;;;;;;3.05;0.40;;;23.20;1.00;;;;;;6215678;23;20020;-89
2022/07/05 18:49:42;;;;;;;1.10;0.50;;;23.10;1.00;;;;;;6217055;23;20044;-89
2022/07/05 18:52:10;;;;;;;2.67;0.82;;;23.10;1.00;;;;;;6190558;23;20020;-89
2022/07/05 18:54:40;;;;;;;3.08;0.52;;;23.10;1.00;;;;;;6191264;23;20266;-89
2022/07/05 18:57:10;;;;;;;1.60;0.40;;;23.00;1.00;;;;;;6215968;23;20023;-88
2022/07/05 18:59:43;;;;;;;2.28;0.45;;;23.00;1.00;;;;;;6215720;23;20013;-89
2022/07/05 19:02:21;;;;;;;1.33;0.32;;;22.70;1.00;;;;;;6216001;23;20051;-88
2022/07/05 19:04:59;;;;;;;1.85;0.45;;;22.60;1.00;;;;;;6241617;22;20032;-88
2022/07/05 19:13:42;;;;;;;1.55;0.52;;;22.70;1.00;;;;;;6243553;22;20044;-87
2022/07/05 19:16:21;;;;;;;2.10;0.60;;;22.70;1.00;;;;;;6226436;22;20040;-91
2022/07/05 19:18:59;;;;;;;;;;;22.50;1.00;;;;;;6217302;23;20047;-88
2022/07/05 19:21:29;;;;;;;1.33;0.90;;;22.30;1.00;;;;;;6217181;23;19962;-88
2022/07/05 19:24:11;;;;;;;;;;;22.30;1.00;;;;;;6202042;23;20020;-88
2022/07/05 19:30:48;;;;;;;1.90;0.68;;;22.30;1.00;;;;;;6219262;23;20043;-89
2022/07/05 19:34:21;;;;;;;2.83;0.55;;;22.20;1.00;;;;;;6213906;23;20031;-90
2022/07/05 19:37:18;;;;;;;1.52;0.43;;;22.10;1.00;;;;;;6214925;23;20104;-89
2022/07/05 19:44:07;;;;;;;1.23;0.63;;;22.00;1.00;;;;;;6188003;23;20024;-90
2022/07/05 19:46:54;;;;;;;0.75;0.30;;;21.80;1.00;;;;;;6192728;23;20528;-90
2022/07/05 19:49:42;;;;;;;3.85;0.77;;;21.80;1.00;;;;;;6192298;23;20103;-91
2022/07/05 19:55:35;;;;;;;2.10;0.95;;;21.70;1.00;;;;;;6214876;23;20017;-90
2022/07/05 19:58:32;;;;;;;1.52;0.50;;;21.70;1.00;;;;;;6208994;23;20028;-90
2022/07/05 20:01:35;;;;;;;1.33;0.47;;;21.60;1.00;;;;;;6183343;23;20071;-90
2022/07/05 20:04:43;;;;;;;0.70;0.40;;;21.50;1.00;;;;;;6187577;22;20043;-89
2022/07/05 20:08:13;;;;;;;3.22;0.73;;;21.30;1.00;;;;;;6184495;23;20088;-90
2022/07/05 20:11:19;;;;;;;1.30;0.43;;;21.30;1.00;;;;;;6183271;23;20021;-90
2022/07/05 20:14:21;;;;;;;3.53;0.88;;;21.30;1.00;;;;;;6112449;23;20022;-89
2022/07/05 20:17:15;;;;;;;0.98;0.30;;;21.20;1.00;;;;;;6156067;23;20028;-90
2022/07/05 20:19:49;;;;;;;2.13;0.55;;;21.10;1.00;;;;;;6152069;23;20022;-89
2022/07/05 20:22:35;;;;;;;0.95;0.45;;;21.10;1.00;;;;;;6132361;23;20014;-90
2022/07/05 20:25:12;;;;;;;1.73;0.75;;;21.00;1.00;;;;;;6155618;23;20037;-90
2022/07/05 20:27:47;;;;;;;1.27;0.30;;;20.90;1.00;;;;;;6155607;23;20021;-90
2022/07/05 20:30:40;;;;;;;4.32;0.32;;;20.70;1.00;;;;;;6135602;23;20021;-90
2022/07/05 20:36:35;;;;;;;1.10;0.47;;;20.80;1.00;;;;;;6216093;23;20031;-88
2022/07/05 20:39:08;;;;;;;0.82;0.25;;;20.70;1.00;;;;;;6215968;23;20036;-90
2022/07/05 20:41:56;;;;;;;3.03;0.88;;;20.70;1.00;;;;;;6216417;23;20013;-92
2022/07/05 20:44:34;;;;;;;2.22;0.40;;;20.80;1.00;;;;;;6202936;23;20086;-89
2022/07/05 20:47:05;;;;;;;0.90;0.40;;;20.60;1.00;;;;;;6193629;23;20100;-89
2022/07/05 20:49:45;;;;;;;1.23;0.28;;;20.60;1.00;;;;;;6194471;23;20036;-89
2022/07/05 20:52:16;;;;;;;2.42;0.60;;;20.60;1.00;;;;;;6193724;23;20016;-89
2022/07/05 20:55:05;;;;;;;1.50;0.22;;;20.50;1.00;;;;;;6218132;23;20013;-89
2022/07/05 20:57:39;;;;;;;2.83;0.50;;;20.50;1.00;;;;;;6192421;23;20012;-89
2022/07/05 21:00:20;;;;;;;1.75;0.30;;;20.50;1.00;;;;;;6168322;23;20459;-88
2022/07/05 21:02:58;;;;;;;2.75;0.55;;;20.40;1.00;;;;;;6191824;23;20021;-89
2022/07/05 21:05:27;;;;;;;1.02;0.57;;;20.40;1.00;;;;;;6218131;23;20017;-88
2022/07/05 21:07:59;;;;;;;1.63;0.40;;;20.30;1.00;;;;;;6218365;23;20016;-88
2022/07/05 21:10:41;;;;;;;1.88;0.30;;;20.30;1.00;;;;;;6190987;23;20042;-89
2022/07/05 21:13:18;;;;;;;1.80;0.77;;;20.20;1.00;;;;;;6194034;23;20407;-89
2022/07/05 21:16:00;;;;;;;2.15;0.40;;;20.10;1.00;;;;;;6168971;23;20016;-89
2022/07/05 21:18:32;;;;;;;1.08;0.30;;;20.20;1.00;;;;;;6168625;23;20017;-88
2022/07/05 21:21:09;;;;;;;1.10;0.30;;;20.20;1.00;;;;;;6210700;23;20040;-89
2022/07/05 21:23:41;;;;;;;2.30;0.30;;;20.20;1.00;;;;;;6222383;23;20013;-89
2022/07/05 21:26:19;;;;;;;1.65;0.57;;;20.20;1.00;;;;;;6239936;23;20003;-88
2022/07/05 21:29:06;;;;;;;1.75;0.57;;;20.20;1.00;;;;;;6168723;23;20332;-89
2022/07/05 21:32:04;;;;;;;1.60;0.30;;;20.10;1.00;;;;;;6167912;23;20040;-88
2022/07/05 21:35:04;;;;;;;4.17;0.63;;;20.10;1.00;;;;;;6182856;23;20017;-89
2022/07/05 21:38:00;;;;;;;4.32;1.17;;;20.00;1.00;;;;;;6141161;23;20104;-88
2022/07/05 21:40:31;;;;;;;1.88;0.40;;;20.00;1.00;;;;;;6162476;23;20290;-89
2022/07/05 21:43:02;;;;;;;1.55;0.25;;;19.90;1.00;;;;;;6134680;23;20025;-87
2022/07/05 21:45:35;;;;;;;1.85;0.63;;;19.80;1.00;;;;;;6181302;23;20023;-89
2022/07/05 21:48:03;;;;;;;1.15;0.30;;;19.80;1.00;;;;;;6189370;23;20020;-88
2022/07/05 21:50:30;;;;;;;1.05;0.30;;;19.80;1.00;;;;;;6190065;23;20008;-89
2022/07/05 21:52:57;;;;;;;1.75;0.25;;;19.80;1.00;;;;;;6190184;23;20001;-88
2022/07/05 21:55:24;;;;;;;3.95;0.38;;;19.70;1.00;;;;;;6165083;23;20001;-88
2022/07/05 21:57:54;;;;;;;3.00;0.35;;;19.70;1.00;;;;;;6182242;23;20027;-88
2022/07/05 22:05:57;;;;;;;2.78;0.35;;;19.60;1.00;;;;;;6188324;23;20017;-88
2022/07/05 22:08:24;;;;;;;5.03;0.60;;;19.60;1.00;;;;;;6161873;23;20067;-89
2022/07/05 22:11:35;;;;;;;1.10;0.60;;;19.50;1.00;;;;;;6187564;23;20028;-88
2022/07/05 22:13:40;;;;;;;2.60;0.77;;;19.50;1.00;;;;;;6187500;23;20027;-88
2022/07/05 22:16:07;;;;;;;0.45;0.13;;;19.50;1.00;;;;;;6161982;23;20075;-88
2022/07/05 22:18:34;;;;;;;0.80;0.20;;;19.40;1.00;;;;;;6161733;23;20025;-89
2022/07/05 22:21:01;;;;;;;1.90;0.45;;;19.40;1.00;;;;;;6161175;23;20021;-88
2022/07/05 22:23:29;;;;;;;1.23;0.70;;;19.30;1.00;;;;;;6187364;23;20039;-88
2022/07/05 22:25:58;;;;;;;2.47;0.80;;;19.30;1.00;;;;;;6161870;23;20028;-88
2022/07/05 22:28:25;;;;;;;2.90;0.60;;;19.30;1.00;;;;;;6161824;23;20048;-90
2022/07/05 22:30:52;;;;;;;3.13;0.20;;;19.30;1.00;;;;;;6161286;23;20021;-88
2022/07/05 22:33:20;;;;;;;3.28;0.52;;;19.30;1.00;;;;;;6161582;23;20017;-88
2022/07/05 22:35:47;;;;;;;0.93;0.17;;;19.30;1.00;;;;;;6160979;23;20018;-88
2022/07/05 22:38:14;;;;;;;1.55;0.30;;;19.20;1.00;;;;;;6161148;23;20017;-88
2022/07/05 22:40:41;;;;;;;2.47;0.20;;;19.20;1.00;;;;;;6136302;23;20045;-88
2022/07/05 22:43:09;;;;;;;1.75;0.38;;;19.20;1.00;;;;;;6186545;23;20027;-88
2022/07/05 22:45:43;;;;;;;4.97;0.60;;;19.20;1.00;;;;;;6161276;23;20025;-89
2022/07/05 22:48:13;;;;;;;1.38;0.32;;;19.10;1.00;;;;;;6161030;23;20029;-88
2022/07/05 22:50:40;;;;;;;0.45;0.20;;;19.10;1.00;;;;;;6160959;23;20027;-89
2022/07/05 22:53:10;;;;;;;6.38;0.77;;;19.10;1.00;;;;;;6135769;23;20052;-89
2022/07/05 22:55:38;;;;;;;1.23;0.30;;;19.10;1.00;;;;;;6160992;23;20013;-89
2022/07/05 22:58:07;;;;;;;1.10;0.38;;;19.10;1.00;;;;;;6160731;23;20511;-89
2022/07/05 23:00:35;;;;;;;1.73;0.77;;;19.00;1.00;;;;;;6160815;23;20037;-89
2022/07/05 23:03:02;;;;;;;1.85;0.47;;;19.00;1.00;;;;;;6186741;23;20017;-88
2022/07/05 23:05:30;;;;;;;2.20;0.38;;;19.00;1.00;;;;;;6161410;23;20017;-89
2022/07/05 23:07:57;;;;;;;2.63;0.40;;;18.90;1.00;;;;;;6160604;23;20024;-88
2022/07/05 23:10:25;;;;;;;0.35;0.20;;;18.90;1.00;;;;;;6162325;23;20048;-89
2022/07/05 23:12:53;;;;;;;1.67;0.40;;;18.90;1.00;;;;;;6161178;23;20024;-88
2022/07/05 23:15:20;;;;;;;4.45;0.50;;;18.90;1.00;;;;;;6187775;23;20099;-89
2022/07/05 23:17:47;;;;;;;1.27;0.20;;;18.80;1.00;;;;;;6151518;23;20076;-89
2022/07/05 23:20:14;;;;;;;0.80;0.30;;;18.80;1.00;;;;;;6140057;23;20013;-88
2022/07/05 23:22:42;;;;;;;0.95;0.22;;;18.80;1.00;;;;;;6179063;23;20036;-89
2022/07/05 23:25:09;;;;;;;3.60;0.43;;;18.70;1.00;;;;;;6138414;23;20021;-89
2022/07/05 23:27:39;;;;;;;1.38;0.20;;;18.70;1.00;;;;;;6161021;23;20017;-89
2022/07/05 23:30:07;;;;;;;3.40;0.57;;;18.70;1.00;;;;;;6160234;23;20428;-89
2022/07/05 23:32:35;;;;;;;1.40;0.20;;;18.60;1.00;;;;;;6135756;23;20027;-89
2022/07/05 23:35:03;;;;;;;2.75;0.40;;;18.60;1.00;;;;;;6160419;23;20014;-88
2022/07/05 23:37:30;;;;;;;1.27;0.30;;;18.70;1.00;;;;;;6160075;23;20072;-88
2022/07/05 23:39:58;;;;;;;1.95;0.30;;;18.60;1.00;;;;;;6160991;23;20013;-88
2022/07/05 23:42:25;;;;;;;2.25;0.50;;;18.60;1.00;;;;;;6160671;23;20104;-89
2022/07/05 23:44:53;;;;;;;1.38;0.30;;;18.60;1.00;;;;;;6161060;23;20096;-89
2022/07/05 23:47:20;;;;;;;1.80;0.30;;;18.60;1.00;;;;;;6161011;23;20032;-88
2022/07/05 23:49:47;;;;;;;4.88;0.57;;;18.60;1.00;;;;;;6161109;23;20441;-88
2022/07/05 23:52:14;;;;;;;1.48;0.50;;;18.60;1.00;;;;;;6161018;23;20492;-88
2022/07/05 23:54:42;;;;;;;1.33;0.20;;;18.50;1.00;;;;;;6161045;23;20436;-89
2022/07/05 23:57:09;;;;;;;5.03;0.40;;;18.50;1.00;;;;;;6161114;23;20648;-89
2022/07/05 23:59:38;;;;;;;1.98;0.40;;;18.50;1.00;;;;;;6161036;23;20027;-88
